Weather History for Spearfish, SD

Change the Weather History Date:

Friday, March 28, 2014

  Actual Average (KEFC) Record (KEFC)
Temperature  
Mean Temperature 29 °F -  
Max Temperature 35 °F 51 °F 75 °F (1960)
Min Temperature 23 °F 27 °F 7 °F (1954)
Degree Days  
Heating Degree Days 36    
Moisture  
Dew Point 24 °F    
Average Humidity 86    
Maximum Humidity 100    
Minimum Humidity 70    
Precipitation  
Precipitation 2.02 in - - ()
Sea Level Pressure  
Sea Level Pressure 29.93 in    
Wind  
Wind Speed 5 mph (North)    
Max Wind Speed 15 mph    
Max Gust Speed 18 mph    
Visibility 8 miles    
Events Snow    
Averages and records for this station are not official NWS values.
T = Trace of Precipitation, MM = Missing Value Source: NWS Daily Summary

Daily Weather History Graph

Daily Weather History Graph

Search for Another Location

Airport:

Trip Planner

Search our weather history database for the weather conditions in past years. The results will help you decide how hot, cold, wet, or windy it might be!

Date:

Astronomy

Mar. 28, 2014 Rise Set
Actual Time 7:43 AM CDT 8:17 PM CDT
Civil Twilight 7:14 AM CDT 8:46 PM CDT
Nautical Twilight 6:39 AM CDT 9:21 PM CDT
Astronomical Twilight 6:03 AM CDT 9:57 PM CDT
Moon 6:20 AM CDT (3/28) 6:12 PM CDT (3/28)
Length of Visible Light 13h 32m
Length of Day
12h 34m
Waning Crescent, 6% of the Moon is Illuminated
Mar 28
Waning Crescent
Mar 30
New
Apr 7
First Quarter
Apr 15
Full
Apr 22
Last Quarter

Hourly Weather History & Observations

Time (CDT) Temp. Windchill Dew Point Humidity Pressure Visibility Wind Dir Wind Speed Gust Speed Precip Events Conditions
12:15 AM 24.8 °F - 21.2 °F 86% 29.77 in 10.0 mi Calm Calm - N/A   Clear
12:35 AM 24.8 °F - 21.2 °F 86% 29.76 in 10.0 mi Calm Calm - N/A   Partly Cloudy
12:55 AM 24.8 °F - 21.2 °F 86% 29.77 in 10.0 mi Calm Calm - N/A   Clear
1:15 AM 24.8 °F - 21.2 °F 86% 29.76 in 10.0 mi Calm Calm - N/A   Clear
1:35 AM 26.6 °F 20.0 °F 23.0 °F 86% 29.76 in 10.0 mi East 5.8 mph - N/A   Clear
1:55 AM 26.6 °F 20.0 °F 23.0 °F 86% 29.76 in 10.0 mi SSE 5.8 mph - N/A   Mostly Cloudy
2:15 AM 26.6 °F 22.6 °F 23.0 °F 86% 29.76 in 10.0 mi South 3.5 mph - N/A   Overcast
2:35 AM 26.6 °F 19.1 °F 24.8 °F 93% 29.76 in 0.5 mi ESE 6.9 mph - 1.07 in Snow Snow
2:55 AM 26.6 °F 16.2 °F 24.8 °F 93% 29.76 in 0.8 mi ESE 11.5 mph - 1.37 in Snow Light Snow
3:15 AM 26.6 °F 15.2 °F 24.8 °F 93% 29.75 in 0.8 mi East 13.8 mph - 0.09 in Snow Light Snow
3:35 AM 26.6 °F 14.7 °F 24.8 °F 93% 29.74 in 2.5 mi East 15.0 mph - 0.11 in Snow Light Snow
3:55 AM 26.6 °F 15.2 °F 24.8 °F 93% 29.74 in 2.5 mi East 13.8 mph - 0.13 in Snow Light Snow
4:15 AM 26.6 °F 14.7 °F 24.8 °F 93% 29.74 in 8.0 mi East 15.0 mph - N/A Snow Light Snow
4:35 AM 26.6 °F 15.2 °F 23.0 °F 86% 29.74 in 5.0 mi ESE 13.8 mph 18.4 mph N/A Snow Light Snow
4:55 AM 26.6 °F 17.5 °F 24.8 °F 93% 29.74 in 5.0 mi ESE 9.2 mph - N/A Snow Light Snow
5:15 AM 26.6 °F 22.6 °F 24.8 °F 93% 29.75 in 7.0 mi South 3.5 mph - N/A Snow Light Snow
5:35 AM 24.8 °F 19.1 °F 24.8 °F 100% 29.76 in 5.0 mi NNW 4.6 mph - 0.01 in   Overcast
5:55 AM 24.8 °F 16.9 °F 24.8 °F 100% 29.76 in 4.0 mi WNW 6.9 mph - 0.04 in   Overcast
6:15 AM 24.8 °F 17.9 °F 24.8 °F 100% 29.77 in 5.0 mi WNW 5.8 mph - 0.01 in   Overcast
6:35 AM 24.8 °F 16.9 °F 24.8 °F 100% 29.78 in 3.0 mi NW 6.9 mph - 0.05 in   Overcast
6:55 AM 24.8 °F 16.9 °F 24.8 °F 100% 29.80 in 4.0 mi NNW 6.9 mph - 0.06 in Snow Light Snow
7:15 AM 24.8 °F 15.3 °F 24.8 °F 100% 29.81 in 5.0 mi NNW 9.2 mph - N/A Snow Light Snow
7:35 AM 24.8 °F 17.9 °F 23.0 °F 93% 29.83 in 7.0 mi NNE 5.8 mph - 0.01 in Snow Light Snow
7:55 AM 23.0 °F 15.8 °F 23.0 °F 100% 29.84 in 1.2 mi North 5.8 mph - 0.08 in Snow Light Snow
8:15 AM 23.0 °F 17.0 °F 23.0 °F 100% 29.86 in 1.0 mi NNE 4.6 mph - 0.11 in Snow Light Snow
8:35 AM 23.0 °F 18.4 °F 21.2 °F 93% 29.88 in 1.5 mi NNE 3.5 mph - 0.18 in Snow Light Snow
8:55 AM 23.0 °F - 21.2 °F 93% 29.89 in 1.0 mi Calm Calm - 0.27 in Snow Light Snow
9:15 AM 23.0 °F 13.9 °F 21.2 °F 93% 29.90 in 3.0 mi WNW 8.1 mph - 0.04 in Snow Light Snow
9:35 AM 23.0 °F 13.1 °F 19.4 °F 86% 29.92 in 3.0 mi WNW 9.2 mph - 0.05 in   Overcast
9:55 AM 23.0 °F 13.1 °F 19.4 °F 86% 29.93 in 6.0 mi WNW 9.2 mph - 0.06 in Snow Light Snow
10:15 AM 23.0 °F 13.9 °F 19.4 °F 86% 29.95 in 10.0 mi NW 8.1 mph - N/A Snow Light Snow
10:35 AM 23.0 °F 14.7 °F 19.4 °F 86% 29.96 in 10.0 mi NW 6.9 mph - N/A   Overcast
10:55 AM 23.0 °F 14.7 °F 19.4 °F 86% 29.97 in 5.0 mi WNW 6.9 mph - N/A   Overcast
11:15 AM 23.0 °F 14.7 °F 21.2 °F 93% 29.98 in 8.0 mi NW 6.9 mph - N/A Snow Light Snow
11:35 AM 23.0 °F 14.7 °F 19.4 °F 86% 30.00 in 6.0 mi NW 6.9 mph - N/A Snow Light Snow
11:55 AM 24.8 °F 17.9 °F 21.2 °F 86% 30.01 in 3.0 mi NW 5.8 mph - 0.01 in Snow Light Snow
12:15 PM 24.8 °F 19.1 °F 21.2 °F 86% 30.02 in 10.0 mi NW 4.6 mph - N/A   Mostly Cloudy
12:35 PM 24.8 °F 20.5 °F 21.2 °F 86% 30.02 in 10.0 mi WNW 3.5 mph - N/A   Overcast
12:55 PM 26.6 °F 21.2 °F 23.0 °F 86% 30.03 in 10.0 mi NW 4.6 mph - N/A   Overcast
1:15 PM 26.6 °F 22.6 °F 23.0 °F 86% 30.03 in 10.0 mi NW 3.5 mph - N/A   Overcast
1:35 PM 26.6 °F 21.2 °F 23.0 °F 86% 30.03 in 10.0 mi NW 4.6 mph - N/A   Overcast
1:55 PM 28.4 °F 20.4 °F 24.8 °F 86% 30.03 in 10.0 mi NNW 8.1 mph - N/A   Overcast
2:15 PM 28.4 °F 20.4 °F 23.0 °F 80% 30.04 in 10.0 mi NNW 8.1 mph - N/A   Overcast
2:35 PM 28.4 °F 21.2 °F 24.8 °F 86% 30.03 in 10.0 mi NNW 6.9 mph - N/A   Mostly Cloudy
2:55 PM 30.2 °F 20.8 °F 24.8 °F 80% 30.03 in 10.0 mi NW 11.5 mph - N/A   Partly Cloudy
3:15 PM 30.2 °F 21.9 °F 24.8 °F 80% 30.03 in 10.0 mi NW 9.2 mph - N/A   Clear
3:35 PM 32.0 °F 24.2 °F 24.8 °F 75% 30.03 in 10.0 mi NW 9.2 mph - N/A   Clear
3:55 PM 32.0 °F 26.4 °F 24.8 °F 75% 30.04 in 10.0 mi NW 5.8 mph - N/A   Clear
4:15 PM 32.0 °F 27.5 °F 24.8 °F 75% 30.04 in 10.0 mi NW 4.6 mph - N/A   Clear
4:35 PM 32.0 °F 28.7 °F 26.6 °F 80% 30.04 in 10.0 mi NE 3.5 mph - N/A   Clear
4:55 PM 32.0 °F 27.5 °F 26.6 °F 80% 30.04 in 10.0 mi ENE 4.6 mph - N/A   Clear
5:15 PM 32.0 °F - 26.6 °F 80% 30.04 in 10.0 mi Calm Calm - N/A   Clear
5:35 PM 35.6 °F - 26.6 °F 70% 30.04 in 10.0 mi Calm Calm - N/A   Clear
5:55 PM 35.6 °F - 26.6 °F 70% 30.04 in 10.0 mi Calm Calm - N/A   Clear
6:15 PM 35.6 °F - 26.6 °F 70% 30.05 in 10.0 mi Calm Calm - N/A   Clear
6:35 PM 35.6 °F - 28.4 °F 75% 30.05 in 10.0 mi Calm Calm - N/A   Clear
6:55 PM 35.6 °F 32.8 °F 28.4 °F 75% 30.06 in 10.0 mi NE 3.5 mph - N/A   Clear
7:15 PM 35.6 °F 30.7 °F 28.4 °F 75% 30.06 in 10.0 mi NE 5.8 mph - N/A   Clear
7:35 PM 32.0 °F 26.4 °F 28.4 °F 87% 30.05 in 10.0 mi NE 5.8 mph - N/A   Clear
7:55 PM 32.0 °F 28.7 °F 26.6 °F 80% 30.05 in 10.0 mi East 3.5 mph - N/A   Clear
8:15 PM 32.0 °F 28.7 °F 26.6 °F 80% 30.04 in 10.0 mi SSE 3.5 mph - N/A   Clear
8:35 PM 32.0 °F - 26.6 °F 80% 30.04 in 10.0 mi Calm Calm - N/A   Clear
8:55 PM 32.0 °F - 26.6 °F 80% 30.04 in 10.0 mi Calm Calm - N/A   Clear
9:15 PM 28.4 °F 23.3 °F 24.8 °F 86% 30.05 in 10.0 mi SE 4.6 mph - N/A   Clear
9:35 PM 28.4 °F 23.3 °F 26.6 °F 93% 30.05 in 10.0 mi ESE 4.6 mph - N/A   Clear
9:55 PM 28.4 °F 23.3 °F 24.8 °F 86% 30.05 in 10.0 mi SSE 4.6 mph - N/A   Clear
10:15 PM 32.0 °F 24.2 °F 24.8 °F 75% 30.04 in 10.0 mi South 9.2 mph - N/A   Clear
10:35 PM 28.4 °F - 24.8 °F 86% 30.05 in 10.0 mi Calm Calm - N/A   Clear
10:55 PM 32.0 °F 26.4 °F 24.8 °F 75% 30.04 in 10.0 mi SSW 5.8 mph - N/A   Clear
11:15 PM 32.0 °F 26.4 °F 24.8 °F 75% 30.04 in 10.0 mi South 5.8 mph - N/A   Clear
11:35 PM 30.2 °F 26.7 °F 24.8 °F 80% 30.04 in 10.0 mi SSW 3.5 mph - N/A   Clear
11:55 PM 28.4 °F 24.6 °F 23.0 °F 80% 30.02 in 10.0 mi SSE 3.5 mph - N/A   Clear